sensor_id;sensor_type;location;lat;lon;timestamp;temperature;humidity
11989;DHT22;6054;50.966;7.094;2024-03-22T08:47:32;21.00;52.90
11989;DHT22;6054;50.966;7.094;2024-03-22T08:50:32;21.10;52.20
11989;DHT22;6054;50.966;7.094;2024-03-22T10:11:44;22.50;45.10
11989;DHT22;6054;50.966;7.094;2024-03-22T10:14:11;22.60;44.30
11989;DHT22;6054;50.966;7.094;2024-03-22T10:16:40;22.90;44.10
11989;DHT22;6054;50.966;7.094;2024-03-22T10:19:13;22.80;40.70
11989;DHT22;6054;50.966;7.094;2024-03-22T10:21:39;22.80;43.90
11989;DHT22;6054;50.966;7.094;2024-03-22T10:24:14;22.90;43.60
11989;DHT22;6054;50.966;7.094;2024-03-22T10:26:41;23.10;43.20
11989;DHT22;6054;50.966;7.094;2024-03-22T10:29:16;23.00;43.70
11989;DHT22;6054;50.966;7.094;2024-03-22T10:31:50;23.00;44.00
11989;DHT22;6054;50.966;7.094;2024-03-22T10:34:36;23.00;43.90
11989;DHT22;6054;50.966;7.094;2024-03-22T10:37:23;23.20;43.80
11989;DHT22;6054;50.966;7.094;2024-03-22T10:40:01;23.10;44.00
11989;DHT22;6054;50.966;7.094;2024-03-22T10:42:40;23.20;44.50
11989;DHT22;6054;50.966;7.094;2024-03-22T10:45:29;23.10;43.50
11989;DHT22;6054;50.966;7.094;2024-03-22T10:47:58;23.20;44.10
11989;DHT22;6054;50.966;7.094;2024-03-22T10:50:31;23.20;43.50
11989;DHT22;6054;50.966;7.094;2024-03-22T10:53:02;23.10;43.90
11989;DHT22;6054;50.966;7.094;2024-03-22T10:55:35;23.20;43.80
11989;DHT22;6054;50.966;7.094;2024-03-22T10:58:08;23.30;42.80
11989;DHT22;6054;50.966;7.094;2024-03-22T11:01:22;23.30;44.10
11989;DHT22;6054;50.966;7.094;2024-03-22T11:04:17;23.40;43.60
11989;DHT22;6054;50.966;7.094;2024-03-22T11:06:47;23.30;43.60
11989;DHT22;6054;50.966;7.094;2024-03-22T11:09:21;23.60;43.20
11989;DHT22;6054;50.966;7.094;2024-03-22T11:11:53;23.60;42.40
11989;DHT22;6054;50.966;7.094;2024-03-22T11:14:24;23.50;44.30
11989;DHT22;6054;50.966;7.094;2024-03-22T11:17:00;23.60;43.90
11989;DHT22;6054;50.966;7.094;2024-03-22T11:19:31;23.50;43.30
11989;DHT22;6054;50.966;7.094;2024-03-22T11:21:57;23.60;40.00
11989;DHT22;6054;50.966;7.094;2024-03-22T11:24:25;23.60;42.40
11989;DHT22;6054;50.966;7.094;2024-03-22T11:26:59;23.60;43.10
11989;DHT22;6054;50.966;7.094;2024-03-22T11:29:31;23.60;43.20
11989;DHT22;6054;50.966;7.094;2024-03-22T11:34:49;23.70;43.50
11989;DHT22;6054;50.966;7.094;2024-03-22T11:37:36;23.80;41.40
11989;DHT22;6054;50.966;7.094;2024-03-22T11:40:34;23.70;41.40
11989;DHT22;6054;50.966;7.094;2024-03-22T11:43:06;24.00;42.10
11989;DHT22;6054;50.966;7.094;2024-03-22T11:45:40;23.90;42.20
11989;DHT22;6054;50.966;7.094;2024-03-22T11:48:28;23.90;42.60
11989;DHT22;6054;50.966;7.094;2024-03-22T11:51:01;23.70;42.70
11989;DHT22;6054;50.966;7.094;2024-03-22T11:53:38;23.90;43.00
11989;DHT22;6054;50.966;7.094;2024-03-22T11:56:08;24.10;39.30
11989;DHT22;6054;50.966;7.094;2024-03-22T11:58:35;24.00;41.80
11989;DHT22;6054;50.966;7.094;2024-03-22T12:01:07;23.90;41.80
11989;DHT22;6054;50.966;7.094;2024-03-22T12:03:37;23.90;42.70
11989;DHT22;6054;50.966;7.094;2024-03-22T12:06:09;24.00;42.40
11989;DHT22;6054;50.966;7.094;2024-03-22T12:08:54;23.90;42.80
11989;DHT22;6054;50.966;7.094;2024-03-22T12:11:39;23.90;41.30
11989;DHT22;6054;50.966;7.094;2024-03-22T12:14:30;23.90;43.40
11989;DHT22;6054;50.966;7.094;2024-03-22T12:17:38;23.90;42.40
11989;DHT22;6054;50.966;7.094;2024-03-22T12:20:22;23.90;42.50
11989;DHT22;6054;50.966;7.094;2024-03-22T12:22:55;23.90;42.40
11989;DHT22;6054;50.966;7.094;2024-03-22T12:25:20;23.90;41.70
11989;DHT22;6054;50.966;7.094;2024-03-22T12:27:51;24.00;42.00
11989;DHT22;6054;50.966;7.094;2024-03-22T12:30:19;23.90;41.30
11989;DHT22;6054;50.966;7.094;2024-03-22T12:33:11;23.90;40.20
11989;DHT22;6054;50.966;7.094;2024-03-22T12:35:50;24.10;37.60
11989;DHT22;6054;50.966;7.094;2024-03-22T12:38:26;23.90;40.80
11989;DHT22;6054;50.966;7.094;2024-03-22T12:40:56;23.90;38.30
11989;DHT22;6054;50.966;7.094;2024-03-22T12:43:42;24.00;39.10
11989;DHT22;6054;50.966;7.094;2024-03-22T12:46:08;23.80;40.60
11989;DHT22;6054;50.966;7.094;2024-03-22T12:48:49;23.90;38.70
11989;DHT22;6054;50.966;7.094;2024-03-22T12:51:19;23.90;40.00
11989;DHT22;6054;50.966;7.094;2024-03-22T12:53:46;24.00;38.70
11989;DHT22;6054;50.966;7.094;2024-03-22T12:56:15;23.70;40.40
11989;DHT22;6054;50.966;7.094;2024-03-22T12:58:41;24.00;39.80
11989;DHT22;6054;50.966;7.094;2024-03-22T13:01:09;24.00;40.40
11989;DHT22;6054;50.966;7.094;2024-03-22T13:03:39;24.00;41.10
11989;DHT22;6054;50.966;7.094;2024-03-22T13:06:07;23.80;39.90
11989;DHT22;6054;50.966;7.094;2024-03-22T13:08:33;24.00;40.70
11989;DHT22;6054;50.966;7.094;2024-03-22T13:14:43;23.80;41.20
11989;DHT22;6054;50.966;7.094;2024-03-22T13:17:24;23.80;40.70
11989;DHT22;6054;50.966;7.094;2024-03-22T13:19:51;23.80;40.60
11989;DHT22;6054;50.966;7.094;2024-03-22T13:22:19;23.80;40.20
11989;DHT22;6054;50.966;7.094;2024-03-22T13:24:47;23.80;40.40
11989;DHT22;6054;50.966;7.094;2024-03-22T13:27:37;23.90;41.10
11989;DHT22;6054;50.966;7.094;2024-03-22T13:30:11;24.00;40.50
11989;DHT22;6054;50.966;7.094;2024-03-22T13:32:40;24.10;39.40
11989;DHT22;6054;50.966;7.094;2024-03-22T13:38:18;24.40;39.40
11989;DHT22;6054;50.966;7.094;2024-03-22T13:40:56;24.30;37.60
11989;DHT22;6054;50.966;7.094;2024-03-22T13:43:23;24.70;36.90
11989;DHT22;6054;50.966;7.094;2024-03-22T13:45:52;24.60;36.30
11989;DHT22;6054;50.966;7.094;2024-03-22T13:48:21;24.60;37.10
11989;DHT22;6054;50.966;7.094;2024-03-22T13:50:52;24.80;38.10
11989;DHT22;6054;50.966;7.094;2024-03-22T13:53:51;24.60;37.70
11989;DHT22;6054;50.966;7.094;2024-03-22T13:56:26;24.40;34.30
11989;DHT22;6054;50.966;7.094;2024-03-22T13:58:54;24.70;37.40
11989;DHT22;6054;50.966;7.094;2024-03-22T14:01:29;25.00;38.50
11989;DHT22;6054;50.966;7.094;2024-03-22T14:03:56;25.10;37.70
11989;DHT22;6054;50.966;7.094;2024-03-22T14:06:25;25.00;36.20
11989;DHT22;6054;50.966;7.094;2024-03-22T14:08:55;25.00;37.10
11989;DHT22;6054;50.966;7.094;2024-03-22T14:11:28;25.10;37.10
11989;DHT22;6054;50.966;7.094;2024-03-22T14:16:55;25.30;37.20
11989;DHT22;6054;50.966;7.094;2024-03-22T14:19:35;25.30;37.10
11989;DHT22;6054;50.966;7.094;2024-03-22T14:22:11;25.50;35.10
11989;DHT22;6054;50.966;7.094;2024-03-22T14:24:53;25.30;36.20
11989;DHT22;6054;50.966;7.094;2024-03-22T14:27:22;25.20;35.60
11989;DHT22;6054;50.966;7.094;2024-03-22T14:29:50;25.10;34.80
11989;DHT22;6054;50.966;7.094;2024-03-22T14:32:22;25.20;35.70
11989;DHT22;6054;50.966;7.094;2024-03-22T14:34:57;25.20;36.70
11989;DHT22;6054;50.966;7.094;2024-03-22T14:37:25;25.10;37.60
11989;DHT22;6054;50.966;7.094;2024-03-22T14:50:38;24.90;38.80
11989;DHT22;6054;50.966;7.094;2024-03-22T14:53:07;24.80;38.70
11989;DHT22;6054;50.966;7.094;2024-03-22T14:55:36;24.70;39.10
11989;DHT22;6054;50.966;7.094;2024-03-22T14:58:20;24.70;38.10
11989;DHT22;6054;50.966;7.094;2024-03-22T15:01:01;24.70;38.30
11989;DHT22;6054;50.966;7.094;2024-03-22T15:07:03;24.60;39.60
11989;DHT22;6054;50.966;7.094;2024-03-22T15:09:42;24.60;38.60
11989;DHT22;6054;50.966;7.094;2024-03-22T15:12:09;24.70;38.20
11989;DHT22;6054;50.966;7.094;2024-03-22T15:14:39;24.70;38.90
11989;DHT22;6054;50.966;7.094;2024-03-22T15:17:05;24.60;39.10
11989;DHT22;6054;50.966;7.094;2024-03-22T15:19:43;24.40;37.10
11989;DHT22;6054;50.966;7.094;2024-03-22T15:22:15;24.40;39.80
11989;DHT22;6054;50.966;7.094;2024-03-22T15:24:45;24.30;40.50
11989;DHT22;6054;50.966;7.094;2024-03-22T15:27:11;24.30;40.70
11989;DHT22;6054;50.966;7.094;2024-03-22T15:29:38;24.30;40.40
11989;DHT22;6054;50.966;7.094;2024-03-22T15:32:05;24.20;40.10
11989;DHT22;6054;50.966;7.094;2024-03-22T15:34:32;24.20;41.30
11989;DHT22;6054;50.966;7.094;2024-03-22T15:36:59;24.10;40.60
11989;DHT22;6054;50.966;7.094;2024-03-22T15:45:47;24.00;42.50
11989;DHT22;6054;50.966;7.094;2024-03-22T15:48:20;23.90;41.90
11989;DHT22;6054;50.966;7.094;2024-03-22T15:50:52;23.90;42.20
11989;DHT22;6054;50.966;7.094;2024-03-22T15:53:20;24.00;43.10
11989;DHT22;6054;50.966;7.094;2024-03-22T15:55:47;23.80;42.40
11989;DHT22;6054;50.966;7.094;2024-03-22T15:58:18;24.00;42.00
11989;DHT22;6054;50.966;7.094;2024-03-22T16:00:55;23.70;42.60
11989;DHT22;6054;50.966;7.094;2024-03-22T16:03:27;23.60;42.80
11989;DHT22;6054;50.966;7.094;2024-03-22T16:05:57;23.70;41.60
11989;DHT22;6054;50.966;7.094;2024-03-22T16:08:40;23.60;43.30
11989;DHT22;6054;50.966;7.094;2024-03-22T16:11:09;23.80;42.90
11989;DHT22;6054;50.966;7.094;2024-03-22T16:42:50;23.00;45.00
11989;DHT22;6054;50.966;7.094;2024-03-22T16:45:19;23.00;45.30
11989;DHT22;6054;50.966;7.094;2024-03-22T16:47:51;22.90;45.30
11989;DHT22;6054;50.966;7.094;2024-03-22T16:50:20;22.80;45.30
11989;DHT22;6054;50.966;7.094;2024-03-22T16:53:03;22.70;45.30
11989;DHT22;6054;50.966;7.094;2024-03-22T16:55:29;22.70;45.60
11989;DHT22;6054;50.966;7.094;2024-03-22T17:08:55;22.40;46.30
11989;DHT22;6054;50.966;7.094;2024-03-22T17:14:06;22.40;46.70
11989;DHT22;6054;50.966;7.094;2024-03-22T17:16:50;22.30;46.50
11989;DHT22;6054;50.966;7.094;2024-03-22T17:19:18;22.30;46.80
11989;DHT22;6054;50.966;7.094;2024-03-22T17:22:00;22.40;46.30
11989;DHT22;6054;50.966;7.094;2024-03-22T17:24:33;22.20;46.70
11989;DHT22;6054;50.966;7.094;2024-03-22T17:27:25;22.20;47.10
11989;DHT22;6054;50.966;7.094;2024-03-22T17:30:14;22.10;47.20
11989;DHT22;6054;50.966;7.094;2024-03-22T17:32:44;22.10;47.30
11989;DHT22;6054;50.966;7.094;2024-03-22T17:35:10;22.00;42.80
11989;DHT22;6054;50.966;7.094;2024-03-22T17:37:40;22.20;46.70
11989;DHT22;6054;50.966;7.094;2024-03-22T17:40:23;22.00;46.60
11989;DHT22;6054;50.966;7.094;2024-03-22T17:42:53;21.90;46.70
11989;DHT22;6054;50.966;7.094;2024-03-22T17:45:19;21.80;47.70
11989;DHT22;6054;50.966;7.094;2024-03-22T17:47:52;21.70;47.80
11989;DHT22;6054;50.966;7.094;2024-03-22T17:50:19;21.70;47.90
11989;DHT22;6054;50.966;7.094;2024-03-22T17:53:07;21.70;48.00
11989;DHT22;6054;50.966;7.094;2024-03-22T17:55:52;21.60;48.10
11989;DHT22;6054;50.966;7.094;2024-03-22T17:58:20;21.60;48.20
11989;DHT22;6054;50.966;7.094;2024-03-22T18:00:58;21.60;48.40
11989;DHT22;6054;50.966;7.094;2024-03-22T18:03:38;21.70;48.30
11989;DHT22;6054;50.966;7.094;2024-03-22T18:06:18;21.60;48.70
11989;DHT22;6054;50.966;7.094;2024-03-22T18:08:45;21.80;48.60
11989;DHT22;6054;50.966;7.094;2024-03-22T18:11:20;21.50;48.50
11989;DHT22;6054;50.966;7.094;2024-03-22T18:14:04;21.50;48.80
11989;DHT22;6054;50.966;7.094;2024-03-22T18:16:37;21.70;47.90
11989;DHT22;6054;50.966;7.094;2024-03-22T18:19:04;21.50;48.50
11989;DHT22;6054;50.966;7.094;2024-03-22T18:21:34;21.40;48.80
11989;DHT22;6054;50.966;7.094;2024-03-22T18:24:11;21.40;48.90
11989;DHT22;6054;50.966;7.094;2024-03-22T18:26:47;21.40;49.00
11989;DHT22;6054;50.966;7.094;2024-03-22T18:29:22;21.40;48.80
11989;DHT22;6054;50.966;7.094;2024-03-22T18:32:03;21.40;49.60
11989;DHT22;6054;50.966;7.094;2024-03-22T18:34:37;21.40;48.80
11989;DHT22;6054;50.966;7.094;2024-03-22T18:37:03;21.40;49.10
11989;DHT22;6054;50.966;7.094;2024-03-22T18:39:30;21.30;48.80
11989;DHT22;6054;50.966;7.094;2024-03-22T18:42:00;21.30;47.20
11989;DHT22;6054;50.966;7.094;2024-03-22T18:44:41;21.30;48.60
11989;DHT22;6054;50.966;7.094;2024-03-22T18:47:20;21.30;48.90
11989;DHT22;6054;50.966;7.094;2024-03-22T18:49:47;21.30;49.10
11989;DHT22;6054;50.966;7.094;2024-03-22T18:52:16;21.30;48.80
11989;DHT22;6054;50.966;7.094;2024-03-22T18:54:47;21.30;48.80
11989;DHT22;6054;50.966;7.094;2024-03-22T18:57:39;21.20;49.00
11989;DHT22;6054;50.966;7.094;2024-03-22T19:00:08;21.20;49.00
11989;DHT22;6054;50.966;7.094;2024-03-22T19:02:50;21.20;49.20
11989;DHT22;6054;50.966;7.094;2024-03-22T19:05:18;21.20;49.30
11989;DHT22;6054;50.966;7.094;2024-03-22T19:07:47;21.10;48.90
11989;DHT22;6054;50.966;7.094;2024-03-22T19:10:16;21.10;49.10
11989;DHT22;6054;50.966;7.094;2024-03-22T19:12:48;21.10;48.60
11989;DHT22;6054;50.966;7.094;2024-03-22T19:15:16;21.30;47.70
11989;DHT22;6054;50.966;7.094;2024-03-22T19:17:45;21.30;48.40
11989;DHT22;6054;50.966;7.094;2024-03-22T19:20:12;21.20;48.60
11989;DHT22;6054;50.966;7.094;2024-03-22T19:22:42;21.10;48.50
11989;DHT22;6054;50.966;7.094;2024-03-22T19:32:55;21.00;49.40
11989;DHT22;6054;50.966;7.094;2024-03-22T19:35:27;21.00;49.30
11989;DHT22;6054;50.966;7.094;2024-03-22T19:37:54;20.90;49.90
11989;DHT22;6054;50.966;7.094;2024-03-22T19:40:23;20.90;49.30
11989;DHT22;6054;50.966;7.094;2024-03-22T19:42:54;20.90;49.40
11989;DHT22;6054;50.966;7.094;2024-03-22T19:45:23;20.90;49.30
11989;DHT22;6054;50.966;7.094;2024-03-22T19:47:49;21.00;49.40
11989;DHT22;6054;50.966;7.094;2024-03-22T19:50:33;20.90;49.30
11989;DHT22;6054;50.966;7.094;2024-03-22T19:53:10;20.90;49.40
11989;DHT22;6054;50.966;7.094;2024-03-22T19:56:01;20.90;49.50
11989;DHT22;6054;50.966;7.094;2024-03-22T19:58:34;21.00;49.70
11989;DHT22;6054;50.966;7.094;2024-03-22T20:01:02;21.00;50.00
11989;DHT22;6054;50.966;7.094;2024-03-22T20:03:32;21.00;50.00
11989;DHT22;6054;50.966;7.094;2024-03-22T20:06:03;21.10;50.00
11989;DHT22;6054;50.966;7.094;2024-03-22T20:08:32;21.10;49.90
11989;DHT22;6054;50.966;7.094;2024-03-22T20:11:23;21.10;49.80
11989;DHT22;6054;50.966;7.094;2024-03-22T20:13:52;21.10;49.80
11989;DHT22;6054;50.966;7.094;2024-03-22T20:16:17;21.10;49.50
11989;DHT22;6054;50.966;7.094;2024-03-22T20:18:45;21.10;49.50
11989;DHT22;6054;50.966;7.094;2024-03-22T20:21:13;21.20;49.90
11989;DHT22;6054;50.966;7.094;2024-03-22T20:23:41;21.10;49.70
11989;DHT22;6054;50.966;7.094;2024-03-22T20:26:07;21.30;49.00
11989;DHT22;6054;50.966;7.094;2024-03-22T20:28:44;21.00;49.10
11989;DHT22;6054;50.966;7.094;2024-03-22T20:31:10;21.10;47.80
11989;DHT22;6054;50.966;7.094;2024-03-22T20:33:39;21.30;48.30
11989;DHT22;6054;50.966;7.094;2024-03-22T20:36:07;21.00;48.50
